Time;durP1;ratioP1;P1;durP2;ratioP2;P2;SDS_P1;SDS_P2;PMS_P1;PMS_P2;Temp;Humidity;BMP_temperature;BMP_pressure;BME280_temperature;BME280_humidity;BME280_pressure;Samples;Min_cycle;Max_cycle;Signal;HPM_P1;HPM_P2
2023/06/27 10:47:41;;;;;;;7.62;5.07;;;;;;;25.06;80.58;100171.94;5593035;28;20263;-83
2023/06/27 10:51:03;;;;;;;6.25;4.93;;;;;;;24.64;79.89;100175.84;5271335;33;33830;-83
2023/06/27 10:54:11;;;;;;;7.25;4.80;;;;;;;24.57;80.91;100184.41;5271625;33;33943;-87
2023/06/27 10:57:17;;;;;;;10.27;4.57;;;;;;;24.62;80.68;100195.38;5258758;33;33734;-88
2023/06/27 11:00:26;;;;;;;4.70;3.95;;;;;;;24.61;80.42;100179.97;5258605;33;33738;-84
2023/06/27 11:03:33;;;;;;;;;;;;;;;24.57;79.37;100189.06;5271638;33;34551;-84
2023/06/27 11:06:40;;;;;;;7.53;4.20;;;;;;;24.46;79.09;100199.25;5271257;33;34037;-84
2023/06/27 11:09:54;;;;;;;5.93;4.35;;;;;;;24.47;79.33;100197.31;5270221;33;33397;-84
2023/06/27 11:13:21;;;;;;;9.88;4.20;;;;;;;24.27;79.31;100198.09;5258947;33;33934;-84
2023/06/27 11:16:25;;;;;;;5.57;4.10;;;;;;;24.23;80.46;100205.25;5271093;33;33862;-84
2023/06/27 11:19:28;;;;;;;6.75;4.18;;;;;;;24.04;82.11;100210.44;5246772;33;34756;-84
2023/06/27 11:22:30;;;;;;;5.87;4.25;;;;;;;23.83;81.95;100218.62;5273121;33;34935;-84
2023/06/27 11:25:44;;;;;;;5.47;3.92;;;;;;;23.65;83.06;100227.31;5247003;33;33460;-84
2023/06/27 11:28:47;;;;;;;12.30;4.10;;;;;;;23.60;82.91;100246.53;5272012;33;33765;-83
2023/06/27 11:31:51;;;;;;;7.22;4.62;;;;;;;23.49;82.80;100248.41;5282019;33;34224;-84
2023/06/27 11:34:54;;;;;;;5.03;4.07;;;;;;;23.52;83.30;100251.44;5271222;33;33941;-84
2023/06/27 11:37:56;;;;;;;7.32;3.92;;;;;;;23.53;83.29;100249.53;5246602;33;34569;-84
2023/06/27 11:41:02;;;;;;;7.40;4.50;;;;;;;23.61;83.29;100243.53;5270804;33;33900;-84
2023/06/27 11:44:10;;;;;;;7.87;4.10;;;;;;;23.70;82.81;100241.13;5257829;33;33973;-83
2023/06/27 11:47:16;;;;;;;12.55;4.57;;;;;;;23.87;82.16;100246.38;5270551;33;33863;-83
2023/06/27 11:50:19;;;;;;;9.73;4.55;;;;;;;23.86;81.23;100244.75;5257938;33;35406;-83
2023/06/27 11:53:24;;;;;;;8.38;5.03;;;;;;;23.94;81.37;100244.22;5246358;33;33189;-83
2023/06/27 11:56:26;;;;;;;9.52;4.70;;;;;;;23.89;81.04;100250.53;5270351;33;34246;-83
2023/06/27 11:59:32;;;;;;;15.55;5.30;;;;;;;23.95;81.76;100254.94;5257618;33;33822;-83
2023/06/27 12:02:35;;;;;;;16.27;5.35;;;;;;;23.65;85.50;100261.13;5259759;33;33915;-83
2023/06/27 12:05:44;;;;;;;12.40;5.05;;;;;;;23.21;86.86;100258.66;5281736;33;34131;-84
2023/06/27 12:08:47;;;;;;;13.57;5.20;;;;;;;23.09;88.55;100267.09;5285080;33;34202;-84
2023/06/27 12:11:52;;;;;;;11.65;5.00;;;;;;;23.18;88.46;100255.62;5270127;33;33863;-87
2023/06/27 12:15:11;;;;;;;8.02;5.20;;;;;;;23.08;89.48;100256.41;5269846;33;33995;-87
2023/06/27 12:18:24;;;;;;;10.05;5.37;;;;;;;22.89;90.23;100246.87;5269915;33;33796;-84
2023/06/27 12:21:27;;;;;;;10.20;5.93;;;;;;;22.94;89.75;100249.66;5259632;33;33819;-84
2023/06/27 12:24:32;;;;;;;8.02;5.65;;;;;;;22.70;95.10;100247.28;5260606;33;33899;-84
2023/06/27 12:27:35;;;;;;;7.75;5.22;;;;;;;22.21;99.83;100241.88;5272330;33;33434;-84
2023/06/27 12:30:38;;;;;;;9.32;5.62;;;;;;;21.93;100.00;100238.22;5248276;33;35006;-84
2023/06/27 12:33:41;;;;;;;7.05;5.50;;;;;;;21.89;100.00;100222.56;5259798;33;34483;-83
2023/06/27 12:36:44;;;;;;;10.40;5.82;;;;;;;22.01;100.00;100234.22;5248984;33;34569;-84
2023/06/27 12:39:47;;;;;;;7.18;5.18;;;;;;;22.20;100.00;100253.94;5259803;33;34074;-84
2023/06/27 12:42:54;;;;;;;8.18;5.60;;;;;;;22.35;99.51;100226.66;5272283;33;33437;-84
2023/06/27 12:46:00;;;;;;;10.02;5.57;;;;;;;22.28;98.13;100220.53;5272262;33;34099;-84
2023/06/27 12:49:03;;;;;;;6.65;5.53;;;;;;;22.30;97.31;100234.00;5259311;33;33863;-84
2023/06/27 12:52:06;;;;;;;8.93;5.65;;;;;;;22.49;95.33;100243.50;5259580;33;35065;-83
2023/06/27 12:55:09;;;;;;;8.77;5.32;;;;;;;22.41;95.69;100246.75;5248324;33;33913;-83
2023/06/27 12:58:12;;;;;;;7.53;5.93;;;;;;;22.37;95.42;100251.06;5247863;33;34177;-84
2023/06/27 13:01:16;;;;;;;8.60;5.20;;;;;;;22.30;96.38;100251.28;5272380;33;34440;-83
2023/06/27 13:04:25;;;;;;;8.95;6.18;;;;;;;22.18;96.91;100239.66;5248317;33;33907;-83
2023/06/27 13:07:28;;;;;;;7.10;5.40;;;;;;;22.24;97.20;100213.94;5260367;33;34868;-83
2023/06/27 13:10:32;;;;;;;6.15;5.20;;;;;;;22.22;97.98;100199.63;5274399;33;33916;-83
2023/06/27 13:13:35;;;;;;;7.53;5.78;;;;;;;22.16;98.82;100193.25;5255653;33;33598;-83
2023/06/27 13:16:37;;;;;;;8.35;5.62;;;;;;;22.21;97.48;100199.91;5256513;33;34060;-84
2023/06/27 13:19:41;;;;;;;7.82;5.45;;;;;;;22.11;97.86;100203.34;5259334;33;35336;-83
2023/06/27 13:22:48;;;;;;;5.87;5.25;;;;;;;22.07;98.56;100211.25;5259155;33;34071;-83
2023/06/27 13:25:50;;;;;;;7.35;5.68;;;;;;;21.94;98.46;100222.63;5272194;33;34958;-83
2023/06/27 13:28:53;;;;;;;6.57;5.22;;;;;;;21.96;97.99;100248.69;5247899;33;33734;-83
2023/06/27 13:31:56;;;;;;;7.87;5.30;;;;;;;21.99;98.50;100249.25;5247120;33;33963;-83
2023/06/27 13:35:00;;;;;;;8.20;5.68;;;;;;;21.98;98.45;100240.22;5260130;33;34042;-83
2023/06/27 13:38:03;;;;;;;7.00;5.45;;;;;;;22.12;95.10;100238.72;5272511;33;33588;-83
2023/06/27 13:41:06;;;;;;;7.40;5.43;;;;;;;22.47;93.87;100236.66;5248111;33;35176;-84
2023/06/27 13:44:12;;;;;;;6.28;5.22;;;;;;;22.94;90.68;100223.03;5259366;33;33817;-84
2023/06/27 13:47:14;;;;;;;6.12;5.03;;;;;;;23.14;88.61;100218.78;5247945;33;33796;-84
2023/06/27 13:50:18;;;;;;;5.32;4.57;;;;;;;22.95;87.42;100212.91;5247697;33;33642;-84
2023/06/27 13:53:21;;;;;;;5.28;4.45;;;;;;;22.89;86.81;100205.69;5247384;33;34629;-84
2023/06/27 13:56:24;;;;;;;6.28;4.68;;;;;;;22.84;85.90;100188.12;5272024;33;34318;-84
2023/06/27 13:59:27;;;;;;;11.98;5.18;;;;;;;22.59;87.22;100198.88;5247406;33;33781;-88
2023/06/27 14:02:30;;;;;;;5.32;4.37;;;;;;;22.52;86.00;100192.78;5266658;33;33912;-87
2023/06/27 14:05:48;;;;;;;6.80;4.50;;;;;;;22.51;84.78;100193.88;5284596;33;36707;-85
